Time;durP1;ratioP1;P1;durP2;ratioP2;P2;SDS_P1;SDS_P2;PMS_P1;PMS_P2;Temp;Humidity;BMP_temperature;BMP_pressure;BME280_temperature;BME280_humidity;BME280_pressure;Samples;Min_cycle;Max_cycle;Signal;HPM_P1;HPM_P2
2021/10/07 00:00:28;;;;;;;;;5.00;4.67;;;;;;;;5018510;28;53415;-58
2021/10/07 00:02:56;;;;;;;;;5.00;5.00;;;;;;;;5020092;28;51279;-58
2021/10/07 00:05:21;;;;;;;;;4.67;3.67;;;;;;;;5018884;28;51289;-58
2021/10/07 00:07:46;;;;;;;;;4.00;4.00;;;;;;;;5018646;28;52984;-58
2021/10/07 00:10:12;;;;;;;;;5.33;4.67;;;;;;;;5019504;28;51158;-58
2021/10/07 00:12:37;;;;;;;;;4.00;4.00;;;;;;;;4994125;28;51457;-58
2021/10/07 00:15:03;;;;;;;;;6.00;6.00;;;;;;;;5019538;28;51371;-61
2021/10/07 00:17:28;;;;;;;;;4.00;3.33;;;;;;;;5019533;28;53152;-57
2021/10/07 00:19:54;;;;;;;;;3.67;3.00;;;;;;;;5013760;28;51443;-58
2021/10/07 00:22:19;;;;;;;;;6.75;6.00;;;;;;;;5018904;28;51298;-58
2021/10/07 00:24:44;;;;;;;;;5.33;4.00;;;;;;;;5019332;28;51303;-58
2021/10/07 00:27:09;;;;;;;;;2.33;2.33;;;;;;;;5016855;28;51981;-58
2021/10/07 00:29:45;;;;;;;;;4.00;4.00;;;;;;;;5016749;28;53830;-58
2021/10/07 00:32:18;;;;;;;;;3.00;2.00;;;;;;;;5018206;28;53418;-58
2021/10/07 00:37:22;;;;;;;;;6.00;4.00;;;;;;;;5017760;28;51717;-58
2021/10/07 00:39:47;;;;;;;;;4.00;3.00;;;;;;;;5017678;28;53438;-58
2021/10/07 00:42:13;;;;;;;;;3.00;3.00;;;;;;;;5017866;28;51278;-58
2021/10/07 00:44:41;;;;;;;;;4.00;3.00;;;;;;;;5018271;28;53074;-58
2021/10/07 00:47:07;;;;;;;;;3.00;3.00;;;;;;;;5016967;28;51904;-58
2021/10/07 00:49:35;;;;;;;;;4.00;3.00;;;;;;;;5017748;28;51591;-58
2021/10/07 00:52:00;;;;;;;;;3.67;3.67;;;;;;;;5018318;28;51443;-58
2021/10/07 00:54:26;;;;;;;;;2.67;2.67;;;;;;;;5019477;28;52784;-58
2021/10/07 00:56:52;;;;;;;;;2.67;2.67;;;;;;;;5016520;28;51992;-58
2021/10/07 00:59:18;;;;;;;;;3.00;3.00;;;;;;;;5016835;28;51234;-57
2021/10/07 01:01:43;;;;;;;;;3.00;3.00;;;;;;;;5016335;28;52620;-58
2021/10/07 01:04:08;;;;;;;;;3.00;1.67;;;;;;;;4996624;28;53640;-58
2021/10/07 01:06:34;;;;;;;;;3.33;3.00;;;;;;;;5018819;28;54624;-58
2021/10/07 01:09:00;;;;;;;;;3.00;2.25;;;;;;;;5018170;28;51403;-58
2021/10/07 01:11:25;;;;;;;;;3.00;2.67;;;;;;;;5017628;28;53229;-58
2021/10/07 01:13:50;;;;;;;;;3.00;2.00;;;;;;;;5018338;28;51298;-57
2021/10/07 01:16:18;;;;;;;;;3.00;3.00;;;;;;;;5013569;28;53214;-58
2021/10/07 01:18:44;;;;;;;;;3.67;3.00;;;;;;;;5016825;28;51219;-58
2021/10/07 01:21:13;;;;;;;;;2.00;2.00;;;;;;;;5018177;28;51231;-58
2021/10/07 01:23:42;;;;;;;;;4.00;3.00;;;;;;;;5018420;28;53183;-58
2021/10/07 01:26:07;;;;;;;;;3.00;3.00;;;;;;;;5017877;28;52235;-58
2021/10/07 01:28:33;;;;;;;;;4.00;2.67;;;;;;;;5017286;28;53034;-58
2021/10/07 01:30:58;;;;;;;;;2.67;2.00;;;;;;;;5016687;28;51111;-58
2021/10/07 01:33:23;;;;;;;;;3.00;3.00;;;;;;;;5019262;28;51101;-58
2021/10/07 01:35:48;;;;;;;;;3.00;2.00;;;;;;;;5015360;28;51681;-58
2021/10/07 01:38:14;;;;;;;;;2.00;2.00;;;;;;;;5018841;28;51246;-58
2021/10/07 01:40:39;;;;;;;;;3.00;3.00;;;;;;;;5018426;28;51351;-59
2021/10/07 01:43:04;;;;;;;;;2.00;2.00;;;;;;;;5018606;28;52014;-59
2021/10/07 01:45:29;;;;;;;;;3.00;2.00;;;;;;;;5016701;28;52790;-58
2021/10/07 01:47:55;;;;;;;;;2.00;2.00;;;;;;;;5017359;28;53116;-59
2021/10/07 01:50:20;;;;;;;;;3.33;2.33;;;;;;;;5017719;28;51226;-59
2021/10/07 01:52:45;;;;;;;;;2.00;1.00;;;;;;;;5016795;28;51403;-58
2021/10/07 01:55:10;;;;;;;;;3.75;3.75;;;;;;;;5017674;28;51131;-59
2021/10/07 01:57:36;;;;;;;;;5.00;4.00;;;;;;;;5009774;28;51198;-58
2021/10/07 02:00:01;;;;;;;;;3.00;2.00;;;;;;;;5017799;28;51425;-59
2021/10/07 02:02:27;;;;;;;;;2.67;2.67;;;;;;;;5018405;28;51181;-58
2021/10/07 02:04:52;;;;;;;;;3.00;1.00;;;;;;;;5015522;28;51435;-58
2021/10/07 02:07:17;;;;;;;;;3.00;2.00;;;;;;;;5017303;28;51562;-59
2021/10/07 02:09:42;;;;;;;;;4.00;3.00;;;;;;;;5017631;28;51084;-58
2021/10/07 02:12:08;;;;;;;;;3.00;3.00;;;;;;;;5017054;28;51459;-58
2021/10/07 02:14:33;;;;;;;;;5.00;5.00;;;;;;;;5016963;28;51615;-58
2021/10/07 02:16:58;;;;;;;;;4.00;4.00;;;;;;;;5016676;28;51084;-58
2021/10/07 02:19:23;;;;;;;;;3.67;3.67;;;;;;;;5016919;28;51643;-58
2021/10/07 02:21:49;;;;;;;;;3.33;3.00;;;;;;;;5016155;28;53790;-57
2021/10/07 02:24:14;;;;;;;;;1.00;1.00;;;;;;;;4993154;28;51628;-58
2021/10/07 02:26:39;;;;;;;;;3.33;2.67;;;;;;;;5017711;28;51159;-58
2021/10/07 02:29:05;;;;;;;;;4.00;2.75;;;;;;;;5016731;28;51311;-58
2021/10/07 02:31:30;;;;;;;;;3.75;3.25;;;;;;;;5018569;28;53292;-60
2021/10/07 02:33:55;;;;;;;;;4.25;4.00;;;;;;;;5000280;28;53023;-58
2021/10/07 02:36:21;;;;;;;;;2.75;2.75;;;;;;;;5016726;28;51217;-58
2021/10/07 02:38:46;;;;;;;;;3.00;3.00;;;;;;;;5016132;28;51133;-57
2021/10/07 02:41:11;;;;;;;;;3.00;3.00;;;;;;;;5015864;28;51405;-57
2021/10/07 02:43:36;;;;;;;;;3.00;2.75;;;;;;;;5016719;28;51838;-59
2021/10/07 02:46:01;;;;;;;;;4.00;4.00;;;;;;;;5016599;28;53394;-58
2021/10/07 02:48:27;;;;;;;;;2.00;2.00;;;;;;;;5016850;28;51282;-58
2021/10/07 02:50:52;;;;;;;;;4.00;4.00;;;;;;;;4993465;28;51550;-59
2021/10/07 02:53:17;;;;;;;;;4.33;3.00;;;;;;;;5017125;28;52643;-59
2021/10/07 02:55:42;;;;;;;;;4.33;4.00;;;;;;;;5017244;28;51277;-58
2021/10/07 02:58:08;;;;;;;;;5.00;4.25;;;;;;;;5017365;28;54217;-58
2021/10/07 03:00:33;;;;;;;;;4.00;3.25;;;;;;;;5016764;28;51472;-59
2021/10/07 03:02:58;;;;;;;;;2.33;2.00;;;;;;;;4999153;28;51192;-58
2021/10/07 03:05:23;;;;;;;;;4.00;3.00;;;;;;;;5016450;28;51103;-59
2021/10/07 03:07:49;;;;;;;;;3.00;3.00;;;;;;;;5017701;28;53341;-59
2021/10/07 03:10:14;;;;;;;;;4.67;3.67;;;;;;;;5016665;28;51389;-59
2021/10/07 03:12:40;;;;;;;;;2.33;2.00;;;;;;;;5016971;28;51719;-59
2021/10/07 03:15:06;;;;;;;;;3.00;3.00;;;;;;;;5015494;28;51367;-59
2021/10/07 03:17:31;;;;;;;;;4.00;3.00;;;;;;;;4994190;28;51195;-59
2021/10/07 03:19:57;;;;;;;;;3.00;3.00;;;;;;;;5015234;28;51096;-59
2021/10/07 03:22:22;;;;;;;;;2.33;2.00;;;;;;;;5016733;28;51784;-56
2021/10/07 03:24:47;;;;;;;;;3.33;2.67;;;;;;;;5017030;28;53465;-59
2021/10/07 03:27:12;;;;;;;;;2.50;2.50;;;;;;;;5016809;28;52035;-58
2021/10/07 03:29:38;;;;;;;;;4.00;3.00;;;;;;;;5016427;28;51184;-58
2021/10/07 03:32:03;;;;;;;;;2.33;2.33;;;;;;;;5017876;28;51810;-58
2021/10/07 03:34:28;;;;;;;;;2.00;2.00;;;;;;;;5017207;28;51136;-58
2021/10/07 03:36:54;;;;;;;;;3.50;3.00;;;;;;;;5019303;28;51244;-58
2021/10/07 03:39:19;;;;;;;;;2.25;2.25;;;;;;;;5018394;28;51412;-59
2021/10/07 03:41:44;;;;;;;;;2.75;2.00;;;;;;;;5019067;28;52191;-59
2021/10/07 03:44:09;;;;;;;;;2.75;2.25;;;;;;;;5019637;28;51180;-59
2021/10/07 03:46:35;;;;;;;;;4.00;3.00;;;;;;;;5018872;28;51736;-58
2021/10/07 03:49:00;;;;;;;;;4.67;3.00;;;;;;;;5016581;28;51363;-58
2021/10/07 03:51:25;;;;;;;;;4.25;3.00;;;;;;;;5018208;28;51298;-58
2021/10/07 03:53:50;;;;;;;;;3.00;3.00;;;;;;;;5016106;28;51197;-58
2021/10/07 03:56:16;;;;;;;;;3.00;2.00;;;;;;;;5019185;28;51348;-58
2021/10/07 03:58:41;;;;;;;;;3.00;3.00;;;;;;;;5020541;28;51452;-58
2021/10/07 04:01:06;;;;;;;;;5.00;4.00;;;;;;;;5018649;28;51245;-58
2021/10/07 04:03:32;;;;;;;;;5.25;4.25;;;;;;;;5018623;28;51183;-58
2021/10/07 04:05:57;;;;;;;;;4.00;4.00;;;;;;;;5018757;28;51153;-58
2021/10/07 04:08:23;;;;;;;;;4.75;4.00;;;;;;;;5019177;28;52371;-59
2021/10/07 04:10:50;;;;;;;;;3.00;3.00;;;;;;;;5018249;28;52044;-58
2021/10/07 04:13:17;;;;;;;;;3.00;3.00;;;;;;;;5018955;28;51182;-59
2021/10/07 04:15:42;;;;;;;;;5.00;4.00;;;;;;;;5018334;28;51223;-58
2021/10/07 04:18:07;;;;;;;;;3.75;3.75;;;;;;;;5018519;28;51147;-58
2021/10/07 04:20:32;;;;;;;;;4.00;4.00;;;;;;;;4995420;28;53029;-58
2021/10/07 04:22:58;;;;;;;;;4.00;3.25;;;;;;;;5019743;28;51169;-58
2021/10/07 04:25:23;;;;;;;;;3.25;3.25;;;;;;;;5018163;28;51094;-58
2021/10/07 04:27:52;;;;;;;;;4.33;4.33;;;;;;;;5019726;28;51352;-58
2021/10/07 04:30:17;;;;;;;;;2.67;2.33;;;;;;;;5019039;28;52051;-58
2021/10/07 04:32:43;;;;;;;;;3.75;3.25;;;;;;;;5017392;28;52553;-58
2021/10/07 04:35:08;;;;;;;;;4.25;3.25;;;;;;;;5018224;28;51423;-58
2021/10/07 04:37:33;;;;;;;;;3.75;3.75;;;;;;;;5019385;28;51084;-58
2021/10/07 04:39:59;;;;;;;;;4.00;3.00;;;;;;;;5018280;28;51278;-58
2021/10/07 04:42:24;;;;;;;;;4.00;3.75;;;;;;;;5019488;28;51234;-58
2021/10/07 04:44:49;;;;;;;;;5.25;4.00;;;;;;;;5017931;28;53915;-58
2021/10/07 04:47:14;;;;;;;;;3.25;3.00;;;;;;;;5018898;28;51338;-59
2021/10/07 04:49:40;;;;;;;;;6.00;4.50;;;;;;;;5018299;28;51695;-58
2021/10/07 04:52:05;;;;;;;;;5.00;5.00;;;;;;;;5019069;28;52582;-58
2021/10/07 04:54:30;;;;;;;;;4.00;4.00;;;;;;;;5016460;28;51680;-56
2021/10/07 04:56:56;;;;;;;;;5.00;4.00;;;;;;;;5018703;28;53125;-57
2021/10/07 04:59:21;;;;;;;;;10.75;10.00;;;;;;;;5017621;28;53469;-58
2021/10/07 05:01:46;;;;;;;;;9.25;8.00;;;;;;;;5017315;28;51198;-57
2021/10/07 05:04:12;;;;;;;;;5.00;4.00;;;;;;;;5014464;28;51335;-57
2021/10/07 05:06:37;;;;;;;;;3.00;3.00;;;;;;;;5017962;28;51354;-59
2021/10/07 05:09:02;;;;;;;;;4.67;4.67;;;;;;;;5019442;28;53140;-56
2021/10/07 05:11:27;;;;;;;;;5.00;4.75;;;;;;;;5018840;28;51222;-57
2021/10/07 05:13:52;;;;;;;;;9.33;3.00;;;;;;;;5020394;28;51253;-58
2021/10/07 05:16:17;;;;;;;;;7.67;5.00;;;;;;;;5017616;28;51131;-57
2021/10/07 05:18:43;;;;;;;;;5.00;4.75;;;;;;;;5003945;28;52878;-57
2021/10/07 05:21:08;;;;;;;;;3.00;3.00;;;;;;;;5018932;28;53381;-57
2021/10/07 05:23:36;;;;;;;;;4.00;4.00;;;;;;;;5018737;28;51211;-58
2021/10/07 05:26:02;;;;;;;;;3.67;3.00;;;;;;;;5018905;28;53341;-56
2021/10/07 05:28:27;;;;;;;;;4.67;4.00;;;;;;;;5003016;28;52546;-58
2021/10/07 05:30:53;;;;;;;;;6.33;4.67;;;;;;;;5018936;28;51195;-57
2021/10/07 05:33:20;;;;;;;;;4.33;4.33;;;;;;;;5016044;28;51267;-57
2021/10/07 05:35:45;;;;;;;;;3.33;3.33;;;;;;;;5018295;28;53212;-57
2021/10/07 05:38:10;;;;;;;;;3.67;3.67;;;;;;;;5017907;28;51305;-56
2021/10/07 05:40:35;;;;;;;;;3.67;3.33;;;;;;;;5017223;28;52105;-56
2021/10/07 05:43:00;;;;;;;;;5.00;3.33;;;;;;;;5017785;28;51335;-56
2021/10/07 05:45:26;;;;;;;;;3.00;3.00;;;;;;;;5018403;28;51110;-56
2021/10/07 05:47:51;;;;;;;;;3.00;2.00;;;;;;;;5017173;28;52788;-57
2021/10/07 05:50:16;;;;;;;;;3.33;3.00;;;;;;;;5017424;28;51137;-57
2021/10/07 05:52:41;;;;;;;;;4.00;4.00;;;;;;;;5017283;28;51288;-57
2021/10/07 05:55:07;;;;;;;;;4.33;4.33;;;;;;;;5017959;28;51615;-57
2021/10/07 05:57:32;;;;;;;;;5.00;5.00;;;;;;;;4999533;28;51752;-57
2021/10/07 05:59:57;;;;;;;;;4.00;4.00;;;;;;;;5016383;28;51473;-58
2021/10/07 06:02:23;;;;;;;;;5.00;4.00;;;;;;;;5017399;28;51197;-61
2021/10/07 06:04:48;;;;;;;;;7.67;5.67;;;;;;;;5017470;28;51207;-60
2021/10/07 06:07:13;;;;;;;;;6.00;4.00;;;;;;;;5016787;28;51743;-60
2021/10/07 06:09:38;;;;;;;;;8.00;8.00;;;;;;;;5018337;28;51238;-59
2021/10/07 06:12:04;;;;;;;;;6.67;6.67;;;;;;;;5017219;28;53259;-60
2021/10/07 06:14:29;;;;;;;;;8.33;8.00;;;;;;;;5017416;28;51455;-59
2021/10/07 06:16:55;;;;;;;;;13.00;8.00;;;;;;;;5016493;28;53253;-61
2021/10/07 06:19:24;;;;;;;;;7.50;7.50;;;;;;;;5015568;28;51205;-59
2021/10/07 06:21:50;;;;;;;;;6.67;5.67;;;;;;;;5001270;28;53188;-60
2021/10/07 06:24:15;;;;;;;;;5.33;5.00;;;;;;;;5017253;28;51281;-59
2021/10/07 06:26:41;;;;;;;;;5.67;5.67;;;;;;;;5016777;28;52309;-59
2021/10/07 06:29:06;;;;;;;;;8.25;8.25;;;;;;;;5014666;28;51787;-60
2021/10/07 06:31:31;;;;;;;;;11.25;11.00;;;;;;;;5011625;28;51467;-59
2021/10/07 06:33:57;;;;;;;;;14.25;12.50;;;;;;;;5016213;28;51173;-59
2021/10/07 06:36:22;;;;;;;;;6.50;6.00;;;;;;;;5015646;28;51116;-59
2021/10/07 06:38:47;;;;;;;;;9.75;9.75;;;;;;;;5018138;28;51430;-59
2021/10/07 06:41:14;;;;;;;;;7.33;7.33;;;;;;;;5016820;28;53331;-60
2021/10/07 06:43:39;;;;;;;;;11.50;9.25;;;;;;;;5016932;28;51359;-60
2021/10/07 06:46:05;;;;;;;;;8.00;8.00;;;;;;;;5016604;28;52634;-61
2021/10/07 06:48:30;;;;;;;;;10.00;10.00;;;;;;;;5016336;28;51162;-62
2021/10/07 06:50:56;;;;;;;;;8.75;8.75;;;;;;;;5000182;28;51226;-60
2021/10/07 06:53:21;;;;;;;;;9.50;8.50;;;;;;;;5016699;28;53411;-59
2021/10/07 06:55:46;;;;;;;;;11.00;11.00;;;;;;;;5015136;28;51946;-59
2021/10/07 06:58:13;;;;;;;;;9.25;9.00;;;;;;;;5016421;28;51319;-59
2021/10/07 07:00:40;;;;;;;;;14.25;13.25;;;;;;;;5014042;28;52842;-59
2021/10/07 07:03:05;;;;;;;;;10.25;9.25;;;;;;;;5016267;28;51382;-59
2021/10/07 07:05:30;;;;;;;;;12.67;11.33;;;;;;;;4992501;28;51429;-60
2021/10/07 07:07:56;;;;;;;;;12.75;10.00;;;;;;;;4998238;28;51229;-59
2021/10/07 07:10:23;;;;;;;;;13.25;11.50;;;;;;;;5017384;28;53464;-59
2021/10/07 07:12:50;;;;;;;;;11.25;10.25;;;;;;;;5017426;28;51310;-59
2021/10/07 07:15:16;;;;;;;;;11.33;10.67;;;;;;;;5015884;28;53171;-59
2021/10/07 07:17:41;;;;;;;;;9.75;9.25;;;;;;;;5015561;28;51033;-57
2021/10/07 07:20:07;;;;;;;;;10.25;10.25;;;;;;;;5015274;28;51648;-58
2021/10/07 07:22:32;;;;;;;;;12.75;12.75;;;;;;;;5016421;28;53096;-57
2021/10/07 07:24:58;;;;;;;;;13.50;11.00;;;;;;;;5014366;28;51348;-58
2021/10/07 07:27:23;;;;;;;;;7.33;7.00;;;;;;;;5015814;28;51085;-58
2021/10/07 07:29:48;;;;;;;;;11.00;10.00;;;;;;;;5016005;28;51053;-58
2021/10/07 07:32:14;;;;;;;;;10.67;10.00;;;;;;;;5014937;28;52052;-58
2021/10/07 07:34:39;;;;;;;;;6.00;3.67;;;;;;;;5016293;28;53051;-57
2021/10/07 07:37:04;;;;;;;;;11.00;10.67;;;;;;;;5016110;28;51213;-58
2021/10/07 07:39:29;;;;;;;;;9.00;9.00;;;;;;;;5016384;28;51491;-58
2021/10/07 07:41:55;;;;;;;;;10.33;10.00;;;;;;;;5015154;28;51230;-58
2021/10/07 07:44:20;;;;;;;;;11.00;11.00;;;;;;;;5016334;28;52399;-58
2021/10/07 07:46:45;;;;;;;;;9.00;8.33;;;;;;;;4998762;28;52562;-57
2021/10/07 07:49:11;;;;;;;;;10.00;10.00;;;;;;;;4999676;28;51236;-58
2021/10/07 07:51:36;;;;;;;;;10.33;10.33;;;;;;;;5017035;28;52468;-59
2021/10/07 07:54:01;;;;;;;;;11.00;10.00;;;;;;;;5015097;28;51344;-58
2021/10/07 07:56:27;;;;;;;;;11.00;11.00;;;;;;;;5015762;28;53668;-57
2021/10/07 07:58:53;;;;;;;;;9.67;9.00;;;;;;;;5015800;28;51203;-56
2021/10/07 08:01:19;;;;;;;;;15.00;15.00;;;;;;;;5016324;28;53092;-58
2021/10/07 08:03:44;;;;;;;;;10.00;8.33;;;;;;;;5012163;28;51423;-56
2021/10/07 08:06:09;;;;;;;;;9.67;9.67;;;;;;;;5015514;28;51156;-57
2021/10/07 08:08:35;;;;;;;;;11.67;10.00;;;;;;;;5015370;28;51215;-57
2021/10/07 08:11:00;;;;;;;;;12.33;10.33;;;;;;;;5015405;28;53284;-56
2021/10/07 08:13:25;;;;;;;;;11.33;10.00;;;;;;;;5017156;28;51858;-57
2021/10/07 08:15:51;;;;;;;;;29.25;28.00;;;;;;;;5016001;28;53367;-57
2021/10/07 08:18:17;;;;;;;;;13.33;11.67;;;;;;;;5016259;28;51298;-57
2021/10/07 08:20:42;;;;;;;;;8.00;8.00;;;;;;;;5015839;28;53006;-56
2021/10/07 08:23:11;;;;;;;;;11.67;11.00;;;;;;;;5016831;28;51787;-58
2021/10/07 08:25:37;;;;;;;;;9.33;9.33;;;;;;;;5018322;28;51249;-58
2021/10/07 08:28:02;;;;;;;;;11.00;10.00;;;;;;;;5018553;28;51270;-57
2021/10/07 08:30:27;;;;;;;;;10.00;10.00;;;;;;;;5018782;28;51289;-58
2021/10/07 08:32:52;;;;;;;;;9.67;8.00;;;;;;;;5018476;28;51925;-59
2021/10/07 08:35:18;;;;;;;;;9.00;9.00;;;;;;;;5017785;28;51257;-58
2021/10/07 08:37:43;;;;;;;;;9.00;9.00;;;;;;;;5017956;28;51447;-58
2021/10/07 08:40:10;;;;;;;;;7.33;7.33;;;;;;;;5020100;28;51293;-58
2021/10/07 08:42:39;;;;;;;;;8.33;7.67;;;;;;;;5017893;28;51798;-58
2021/10/07 08:45:06;;;;;;;;;11.67;9.00;;;;;;;;5018258;28;51229;-59
2021/10/07 08:47:31;;;;;;;;;10.00;8.67;;;;;;;;5019067;28;51294;-58
2021/10/07 08:49:56;;;;;;;;;12.33;11.00;;;;;;;;5018241;28;51210;-58
2021/10/07 08:52:22;;;;;;;;;10.33;10.00;;;;;;;;5019256;28;52047;-58
2021/10/07 08:54:47;;;;;;;;;7.00;6.00;;;;;;;;5017141;28;51162;-57
2021/10/07 08:57:13;;;;;;;;;7.67;7.67;;;;;;;;5018237;28;53002;-59
2021/10/07 08:59:39;;;;;;;;;8.67;8.67;;;;;;;;5019042;28;53507;-59
2021/10/07 09:02:10;;;;;;;;;11.67;11.33;;;;;;;;5018472;28;52906;-59
2021/10/07 09:04:36;;;;;;;;;10.00;10.00;;;;;;;;5017614;28;51143;-59
2021/10/07 09:07:04;;;;;;;;;12.33;11.33;;;;;;;;4992304;28;51240;-59
2021/10/07 09:09:30;;;;;;;;;9.67;9.00;;;;;;;;5019174;28;51361;-57
2021/10/07 09:12:01;;;;;;;;;13.00;11.67;;;;;;;;5017793;28;51242;-60
2021/10/07 09:14:26;;;;;;;;;10.00;10.00;;;;;;;;5017959;28;53442;-59
2021/10/07 09:16:52;;;;;;;;;10.67;9.67;;;;;;;;5018429;28;53033;-59
2021/10/07 09:19:19;;;;;;;;;12.33;10.00;;;;;;;;5017208;28;51176;-57
2021/10/07 09:21:45;;;;;;;;;9.33;9.33;;;;;;;;5017360;28;52235;-58
2021/10/07 09:24:32;;;;;;;;;9.33;8.33;;;;;;;;5018556;28;51123;-58
2021/10/07 09:26:58;;;;;;;;;9.00;8.67;;;;;;;;5007971;28;51128;-58
2021/10/07 09:29:34;;;;;;;;;9.00;9.00;;;;;;;;5017909;28;51160;-57
2021/10/07 09:31:59;;;;;;;;;11.67;10.00;;;;;;;;5017438;28;51874;-58
2021/10/07 09:34:36;;;;;;;;;10.00;9.33;;;;;;;;5017366;28;51087;-58
2021/10/07 09:37:01;;;;;;;;;12.00;11.33;;;;;;;;5017621;28;51349;-60
2021/10/07 09:39:31;;;;;;;;;9.00;9.00;;;;;;;;5018323;28;51172;-58
2021/10/07 09:42:04;;;;;;;;;7.00;6.67;;;;;;;;5018308;28;51951;-58
2021/10/07 09:44:29;;;;;;;;;6.00;6.00;;;;;;;;5017311;28;53350;-59
2021/10/07 09:46:55;;;;;;;;;3.33;3.33;;;;;;;;5017558;28;53364;-58
2021/10/07 09:49:31;;;;;;;;;5.00;5.00;;;;;;;;5015467;28;51144;-58
2021/10/07 09:51:57;;;;;;;;;4.00;3.67;;;;;;;;5017802;28;53233;-57
2021/10/07 09:54:31;;;;;;;;;7.33;4.67;;;;;;;;5019003;28;51199;-59
2021/10/07 09:56:57;;;;;;;;;18.00;16.33;;;;;;;;5017175;28;51209;-59
2021/10/07 09:59:24;;;;;;;;;4.00;3.67;;;;;;;;5017237;28;53287;-58
2021/10/07 10:01:51;;;;;;;;;8.33;6.33;;;;;;;;5017671;28;52988;-59
2021/10/07 10:04:17;;;;;;;;;8.67;7.00;;;;;;;;5017181;28;51345;-59
2021/10/07 10:06:43;;;;;;;;;7.00;6.00;;;;;;;;5017625;28;53325;-59
2021/10/07 10:09:09;;;;;;;;;7.00;5.33;;;;;;;;5017537;28;52500;-59
2021/10/07 10:11:34;;;;;;;;;7.67;7.33;;;;;;;;5015727;28;51902;-59
2021/10/07 10:13:59;;;;;;;;;9.33;8.00;;;;;;;;5017367;28;53072;-59
2021/10/07 10:16:25;;;;;;;;;5.00;5.00;;;;;;;;5017403;28;51132;-58
2021/10/07 10:18:54;;;;;;;;;9.00;9.00;;;;;;;;5016740;28;51511;-59
2021/10/07 10:21:21;;;;;;;;;5.00;3.00;;;;;;;;5017160;28;52877;-59
2021/10/07 10:23:46;;;;;;;;;7.67;5.00;;;;;;;;5015845;28;51321;-59
2021/10/07 10:26:12;;;;;;;;;4.67;4.67;;;;;;;;5017625;28;51188;-58
2021/10/07 10:28:41;;;;;;;;;8.33;8.33;;;;;;;;5017366;28;51502;-60
2021/10/07 10:31:09;;;;;;;;;7.67;7.67;;;;;;;;5016175;28;54813;-60
2021/10/07 10:33:35;;;;;;;;;6.33;6.33;;;;;;;;5017268;28;51240;-57
2021/10/07 10:36:01;;;;;;;;;8.67;7.67;;;;;;;;5001169;28;53191;-57
2021/10/07 10:38:29;;;;;;;;;5.00;5.00;;;;;;;;5016366;28;51329;-58
2021/10/07 10:41:07;;;;;;;;;7.67;6.33;;;;;;;;5016818;28;52439;-57
2021/10/07 10:43:34;;;;;;;;;7.00;7.00;;;;;;;;4996886;28;51229;-58
2021/10/07 10:46:02;;;;;;;;;7.33;6.00;;;;;;;;5016394;28;51219;-58
2021/10/07 10:48:44;;;;;;;;;7.00;6.00;;;;;;;;5015166;28;51344;-57
2021/10/07 10:51:13;;;;;;;;;7.33;7.33;;;;;;;;5015092;28;51716;-58
2021/10/07 10:53:49;;;;;;;;;8.33;8.00;;;;;;;;5017168;28;51207;-58
2021/10/07 10:56:14;;;;;;;;;9.33;9.33;;;;;;;;5015963;28;51096;-58
2021/10/07 10:58:40;;;;;;;;;4.67;4.33;;;;;;;;4991123;28;51199;-58
2021/10/07 11:01:12;;;;;;;;;7.67;7.00;;;;;;;;5015948;28;53110;-59
2021/10/07 11:03:39;;;;;;;;;8.67;7.00;;;;;;;;5015206;28;53294;-58
2021/10/07 11:06:06;;;;;;;;;8.00;6.33;;;;;;;;5015798;28;51303;-58
2021/10/07 11:08:32;;;;;;;;;9.00;8.00;;;;;;;;5016588;28;51402;-57
2021/10/07 11:10:59;;;;;;;;;12.33;11.00;;;;;;;;5016238;28;51359;-56
2021/10/07 11:13:26;;;;;;;;;12.00;10.67;;;;;;;;5016575;28;52000;-57
2021/10/07 11:15:56;;;;;;;;;12.00;10.67;;;;;;;;5015604;28;51329;-57
2021/10/07 11:18:22;;;;;;;;;9.33;8.00;;;;;;;;5015293;28;51330;-57
2021/10/07 11:20:54;;;;;;;;;6.67;6.00;;;;;;;;5002083;28;54091;-58
2021/10/07 11:23:19;;;;;;;;;6.33;6.00;;;;;;;;5016629;28;51127;-58
2021/10/07 11:25:49;;;;;;;;;6.67;6.67;;;;;;;;5016158;28;51174;-58
2021/10/07 11:28:17;;;;;;;;;6.67;6.00;;;;;;;;5015546;28;51667;-56
2021/10/07 11:30:44;;;;;;;;;8.33;7.00;;;;;;;;5016172;28;51879;-56
2021/10/07 11:33:10;;;;;;;;;6.67;6.33;;;;;;;;5015366;28;51308;-58
2021/10/07 11:35:35;;;;;;;;;5.67;5.00;;;;;;;;5015867;28;51188;-57
2021/10/07 11:38:05;;;;;;;;;4.00;4.00;;;;;;;;5016541;28;51346;-57
2021/10/07 11:40:34;;;;;;;;;6.00;5.33;;;;;;;;5016379;28;52921;-57
2021/10/07 11:43:01;;;;;;;;;3.33;3.00;;;;;;;;5015465;28;51231;-57
2021/10/07 11:45:28;;;;;;;;;4.00;3.67;;;;;;;;5016556;28;51147;-57
2021/10/07 11:47:54;;;;;;;;;5.00;4.00;;;;;;;;5014618;28;53476;-57
2021/10/07 11:50:21;;;;;;;;;8.67;8.33;;;;;;;;5015358;28;51536;-57
2021/10/07 11:52:46;;;;;;;;;10.67;8.67;;;;;;;;5016093;28;53415;-57
2021/10/07 11:55:12;;;;;;;;;5.00;5.00;;;;;;;;5015253;28;53629;-57
2021/10/07 11:57:48;;;;;;;;;3.33;2.67;;;;;;;;5020183;28;51320;-58
2021/10/07 12:00:14;;;;;;;;;7.00;7.00;;;;;;;;5017632;28;51979;-58
2021/10/07 12:02:39;;;;;;;;;6.00;3.67;;;;;;;;5018669;28;53169;-57
2021/10/07 12:05:19;;;;;;;;;7.00;5.67;;;;;;;;5017561;28;51153;-58
2021/10/07 12:08:01;;;;;;;;;4.67;4.67;;;;;;;;5019086;28;51515;-57
2021/10/07 12:10:37;;;;;;;;;3.00;2.67;;;;;;;;5018699;28;51953;-57
2021/10/07 12:13:22;;;;;;;;;5.33;5.33;;;;;;;;5018840;28;53225;-58
2021/10/07 12:15:51;;;;;;;;;8.33;5.67;;;;;;;;5019698;28;51045;-57
2021/10/07 12:18:17;;;;;;;;;6.67;5.00;;;;;;;;5017720;28;51381;-58
2021/10/07 12:20:56;;;;;;;;;4.00;3.33;;;;;;;;5017573;28;52027;-58
2021/10/07 12:23:21;;;;;;;;;6.00;6.00;;;;;;;;5018366;28;51275;-58
2021/10/07 12:25:46;;;;;;;;;6.33;6.33;;;;;;;;5019813;28;51097;-58
2021/10/07 12:28:15;;;;;;;;;6.67;5.67;;;;;;;;5018004;28;53080;-58
2021/10/07 12:31:01;;;;;;;;;8.00;8.00;;;;;;;;5018318;28;52841;-58
2021/10/07 12:33:28;;;;;;;;;15.00;12.67;;;;;;;;5017506;28;51214;-58
2021/10/07 12:35:54;;;;;;;;;8.67;7.67;;;;;;;;5017320;28;53141;-57
2021/10/07 12:38:19;;;;;;;;;8.00;8.00;;;;;;;;5018968;28;51369;-56
2021/10/07 12:40:55;;;;;;;;;8.67;7.00;;;;;;;;5018759;28;51848;-58
2021/10/07 12:43:20;;;;;;;;;6.33;6.00;;;;;;;;5019374;28;51175;-57
2021/10/07 12:46:00;;;;;;;;;7.00;7.00;;;;;;;;5018489;28;51151;-57
2021/10/07 12:48:26;;;;;;;;;6.00;5.00;;;;;;;;5017373;28;51428;-57
2021/10/07 12:50:51;;;;;;;;;10.33;10.00;;;;;;;;5018249;28;51184;-57
2021/10/07 12:53:16;;;;;;;;;6.33;6.33;;;;;;;;5019129;28;51211;-57
2021/10/07 12:55:41;;;;;;;;;7.00;5.00;;;;;;;;5018250;28;51195;-58
2021/10/07 12:58:22;;;;;;;;;4.00;4.00;;;;;;;;5018029;28;51294;-59
2021/10/07 13:00:47;;;;;;;;;3.00;3.00;;;;;;;;5017293;28;52253;-57
2021/10/07 13:03:16;;;;;;;;;4.33;4.33;;;;;;;;5018825;28;51184;-58
2021/10/07 13:05:42;;;;;;;;;9.00;9.00;;;;;;;;5017497;28;51247;-56
2021/10/07 13:08:08;;;;;;;;;2.00;2.00;;;;;;;;5017573;28;51408;-59
2021/10/07 13:10:35;;;;;;;;;5.33;4.33;;;;;;;;5017434;28;53316;-57
2021/10/07 13:13:01;;;;;;;;;4.33;3.33;;;;;;;;5018845;28;51219;-60
2021/10/07 13:15:26;;;;;;;;;3.00;3.00;;;;;;;;5018295;28;51152;-57
2021/10/07 13:17:51;;;;;;;;;2.00;2.00;;;;;;;;5018804;28;53270;-57
2021/10/07 13:20:20;;;;;;;;;2.33;2.33;;;;;;;;5017319;28;51906;-57
2021/10/07 13:22:46;;;;;;;;;2.00;2.00;;;;;;;;5018191;28;51151;-58
2021/10/07 13:25:12;;;;;;;;;3.00;3.00;;;;;;;;5017492;28;51170;-57
2021/10/07 13:27:41;;;;;;;;;2.00;2.00;;;;;;;;5018162;28;52641;-59
2021/10/07 13:30:08;;;;;;;;;4.33;3.33;;;;;;;;5016752;28;52452;-58
2021/10/07 13:32:33;;;;;;;;;1.00;1.00;;;;;;;;4996692;28;51165;-57
2021/10/07 13:34:58;;;;;;;;;3.33;3.00;;;;;;;;5017022;28;52828;-57
2021/10/07 13:37:24;;;;;;;;;2.00;1.00;;;;;;;;5017826;28;51544;-57
2021/10/07 13:39:49;;;;;;;;;4.00;2.00;;;;;;;;5017026;28;55025;-57
2021/10/07 13:42:14;;;;;;;;;1.00;1.00;;;;;;;;5017060;28;51418;-57
2021/10/07 13:44:39;;;;;;;;;2.00;2.00;;;;;;;;5017726;28;51132;-57
2021/10/07 13:47:05;;;;;;;;;2.00;1.67;;;;;;;;5017667;28;51305;-58
2021/10/07 13:49:30;;;;;;;;;1.33;1.33;;;;;;;;5017111;28;53352;-59
2021/10/07 13:51:55;;;;;;;;;1.00;1.00;;;;;;;;5017424;28;53273;-59
2021/10/07 13:54:21;;;;;;;;;3.00;3.00;;;;;;;;5018031;28;51137;-57
2021/10/07 13:56:47;;;;;;;;;7.00;5.33;;;;;;;;5018436;28;51413;-59
2021/10/07 13:59:12;;;;;;;;;2.00;2.00;;;;;;;;5016817;28;52150;-58
2021/10/07 14:01:37;;;;;;;;;4.00;4.00;;;;;;;;5018331;28;51214;-57
2021/10/07 14:04:03;;;;;;;;;3.00;3.00;;;;;;;;5015737;28;51238;-58
2021/10/07 14:06:28;;;;;;;;;1.33;1.33;;;;;;;;5018118;28;51255;-58
2021/10/07 14:08:53;;;;;;;;;1.33;1.33;;;;;;;;5016584;28;51128;-58
2021/10/07 14:11:19;;;;;;;;;1.33;1.33;;;;;;;;5016757;28;51324;-56
2021/10/07 14:13:44;;;;;;;;;2.00;2.00;;;;;;;;5016982;28;53301;-57
2021/10/07 14:16:11;;;;;;;;;8.33;8.33;;;;;;;;5016811;28;51313;-57
2021/10/07 14:18:36;;;;;;;;;6.00;4.00;;;;;;;;5014893;28;53208;-57
2021/10/07 14:21:01;;;;;;;;;2.33;2.00;;;;;;;;5016123;28;53426;-57
2021/10/07 14:23:27;;;;;;;;;1.67;1.67;;;;;;;;5017259;28;51356;-57
2021/10/07 14:25:54;;;;;;;;;1.00;1.00;;;;;;;;5015667;28;51361;-58
2021/10/07 14:28:19;;;;;;;;;0.00;0.00;;;;;;;;5015138;28;53520;-58
2021/10/07 14:30:46;;;;;;;;;1.33;1.33;;;;;;;;5017566;28;51062;-58
2021/10/07 14:33:11;;;;;;;;;3.00;3.00;;;;;;;;5015828;28;51147;-58
2021/10/07 14:35:36;;;;;;;;;6.67;6.00;;;;;;;;5016202;28;51276;-57